DIAP/ABJ METAR and TAF weather

Enter ICAO airport designator
Station Type Date Time Source
DIAP METAR 2019/09/21 22:00 UTC NOAA

DIAP 212200Z 23007KT 9999 FEW012 25/24 Q1013 NOSIG


Station Type Date Time Source
DIAP Decoded METAR 2019/09/21 22:00 UTC NOAA

Abidjan, Cote d'Ivoire (DIAP) 05-15N 003-56W 8M
Sep 21, 2019 - 06:00 PM EDT / 2019.09.21 2200 UTC
Wind: from the SW (230 degrees) at 8 MPH (7 KT):0
Visibility: greater than 7 mile(s):0
Sky conditions: mostly clear
Temperature: 77 F (25 C)
Dew Point: 75 F (24 C)
Relative Humidity: 94%
Pressure (altimeter): 29.91 in. Hg (1013 hPa)
ob: DIAP 212200Z 23007KT 9999 FEW012 25/24 Q1013 NOSIG
cycle: 22

Station Type Date Time Source
DIAP TAF 2019/09/21 18:37 UTC NOAA

TAF DIAP 211700Z 2118/2224 23006KT 9999 SCT012
TEMPO 2202/2206 4000 TSRA BKN012 FEW020CB
TEMPO 2206/2210 BKN012 PROB30
TEMPO 2216/2222 BKN012 FEW020CB

Example: see airport list